Time;durP1;ratioP1;P1;durP2;ratioP2;P2;SDS_P1;SDS_P2;PMS_P1;PMS_P2;Temp;Humidity;BMP_temperature;BMP_pressure;BME280_temperature;BME280_humidity;BME280_pressure;Samples;Min_cycle;Max_cycle;Signal;HPM_P1;HPM_P2
2022/09/02 04:00:41;;;;;;;6.77;6.27;;;14.70;99.90;;;;;;5853444;23;20490;-64
2022/09/02 04:03:08;;;;;;;5.90;5.60;;;14.60;99.90;;;;;;4977779;28;20442;-64
2022/09/02 04:05:34;;;;;;;7.30;6.90;;;14.60;99.90;;;;;;4977702;28;20454;-64
2022/09/02 04:08:02;;;;;;;7.60;7.10;;;14.50;99.90;;;;;;4977592;28;20446;-65
2022/09/02 04:10:29;;;;;;;6.90;6.30;;;14.50;99.90;;;;;;4977571;28;20462;-65
2022/09/02 04:12:55;;;;;;;6.77;6.37;;;14.50;99.90;;;;;;4977498;28;20454;-65
2022/09/02 04:15:22;;;;;;;7.03;6.53;;;14.40;99.90;;;;;;4977529;28;20458;-65
2022/09/02 04:17:50;;;;;;;6.93;6.37;;;14.50;99.90;;;;;;4977415;28;20565;-65
2022/09/02 04:20:17;;;;;;;7.20;6.60;;;14.40;99.90;;;;;;4977054;28;21000;-65
2022/09/02 04:22:44;;;;;;;6.87;6.47;;;14.40;99.90;;;;;;4977294;28;20485;-65
2022/09/02 04:25:11;;;;;;;5.70;5.40;;;14.40;99.90;;;;;;4977344;28;20822;-66
2022/09/02 04:27:38;;;;;;;7.00;6.60;;;14.40;99.90;;;;;;4977545;28;20462;-65
2022/09/02 04:30:07;;;;;;;7.20;6.50;;;14.40;99.90;;;;;;4977689;28;20470;-64
2022/09/02 04:32:35;;;;;;;7.40;6.73;;;14.40;99.90;;;;;;4977511;28;20474;-64
2022/09/02 04:35:04;;;;;;;6.40;6.00;;;14.40;99.90;;;;;;4977751;28;20490;-64
2022/09/02 04:37:32;;;;;;;6.67;6.17;;;14.30;99.90;;;;;;4977992;28;20491;-65
2022/09/02 04:39:58;;;;;;;6.67;6.27;;;14.40;99.90;;;;;;4977259;28;20824;-65
2022/09/02 04:42:25;;;;;;;7.03;6.63;;;14.30;99.90;;;;;;4976940;28;20490;-65
2022/09/02 04:44:53;;;;;;;6.37;5.97;;;14.30;99.90;;;;;;4977045;28;20826;-65
2022/09/02 04:47:20;;;;;;;6.63;6.13;;;14.20;99.90;;;;;;4976952;28;20549;-65
2022/09/02 04:49:46;;;;;;;7.10;6.50;;;14.20;99.90;;;;;;4976934;28;20455;-65
2022/09/02 04:52:15;;;;;;;6.07;5.67;;;14.20;99.90;;;;;;4976776;28;20505;-65
2022/09/02 04:54:41;;;;;;;6.07;5.67;;;14.20;99.90;;;;;;4976847;28;20537;-65
2022/09/02 04:57:08;;;;;;;6.77;6.17;;;14.20;99.90;;;;;;4976821;28;20463;-64
2022/09/02 04:59:35;;;;;;;5.70;5.30;;;14.20;99.90;;;;;;4976783;28;20461;-65
2022/09/02 05:02:02;;;;;;;6.30;5.80;;;14.20;99.90;;;;;;4976310;28;20486;-64
2022/09/02 05:04:30;;;;;;;6.33;5.80;;;14.20;99.90;;;;;;4976548;28;20458;-65
2022/09/02 05:07:00;;;;;;;6.23;5.83;;;14.20;99.90;;;;;;4977209;28;20497;-65
2022/09/02 05:09:28;;;;;;;6.60;6.20;;;14.30;99.90;;;;;;4976825;28;20454;-65
2022/09/02 05:11:56;;;;;;;5.43;5.10;;;14.30;99.90;;;;;;4976370;28;20470;-65
2022/09/02 05:14:23;;;;;;;5.57;5.23;;;14.30;99.90;;;;;;4976430;28;20553;-65
2022/09/02 05:16:52;;;;;;;5.73;5.33;;;14.40;99.90;;;;;;4976276;28;20461;-64
2022/09/02 05:19:21;;;;;;;5.53;5.10;;;14.40;99.90;;;;;;4975658;28;20837;-65
2022/09/02 05:21:49;;;;;;;5.03;4.83;;;14.50;99.90;;;;;;4976234;28;20493;-64
2022/09/02 05:24:17;;;;;;;5.00;4.63;;;14.50;99.90;;;;;;4975875;28;21005;-64
2022/09/02 05:26:45;;;;;;;5.33;4.90;;;14.60;99.90;;;;;;4976056;28;20827;-64
2022/09/02 05:29:14;;;;;;;5.10;4.60;;;14.70;99.90;;;;;;4976137;28;20516;-65
2022/09/02 05:31:41;;;;;;;5.90;4.90;;;14.70;99.90;;;;;;4976066;28;20529;-64
2022/09/02 05:34:08;;;;;;;6.70;4.87;;;14.80;99.90;;;;;;4975837;28;20497;-64
2022/09/02 05:36:35;;;;;;;5.10;4.80;;;14.90;99.90;;;;;;4975963;28;20820;-64
2022/09/02 05:39:02;;;;;;;5.60;4.73;;;15.00;99.90;;;;;;4976065;28;20458;-64
2022/09/02 05:41:29;;;;;;;5.27;4.87;;;15.10;99.90;;;;;;4975896;28;20492;-64
2022/09/02 05:43:59;;;;;;;5.03;4.73;;;15.20;99.90;;;;;;4976111;28;20462;-64
2022/09/02 05:46:27;;;;;;;5.03;4.70;;;15.30;99.90;;;;;;4976782;28;20439;-64
2022/09/02 05:49:07;;;;;;;4.93;4.53;;;15.50;99.90;;;;;;4975963;28;20458;-64
2022/09/02 05:51:39;;;;;;;4.27;3.97;;;15.70;99.90;;;;;;4976014;28;20483;-64
2022/09/02 05:54:07;;;;;;;5.90;4.60;;;15.90;99.90;;;;;;4975947;28;20869;-64
2022/09/02 05:56:33;;;;;;;4.50;4.20;;;16.00;99.90;;;;;;4975548;28;20461;-64
2022/09/02 05:59:02;;;;;;;4.17;3.97;;;16.30;99.90;;;;;;4976405;28;20494;-64
2022/09/02 06:01:29;;;;;;;7.37;5.43;;;16.60;99.90;;;;;;4975494;28;20509;-65
2022/09/02 06:03:56;;;;;;;5.03;4.30;;;17.00;99.90;;;;;;4975579;28;20461;-64
2022/09/02 06:06:23;;;;;;;3.97;3.67;;;17.60;99.90;;;;;;4975901;28;20458;-65
2022/09/02 06:08:50;;;;;;;3.67;3.47;;;18.00;99.90;;;;;;4975614;28;20454;-64
2022/09/02 06:11:18;;;;;;;4.53;4.23;;;18.60;99.90;;;;;;4975454;28;20470;-64
2022/09/02 06:13:45;;;;;;;2.83;2.73;;;19.00;99.90;;;;;;4975440;28;20454;-65
2022/09/02 06:16:18;;;;;;;3.93;3.73;;;19.60;99.90;;;;;;4975373;28;20815;-64
2022/09/02 06:18:44;;;;;;;4.00;3.80;;;20.00;99.90;;;;;;4975562;28;20443;-65
2022/09/02 06:21:11;;;;;;;4.17;3.77;;;20.50;99.90;;;;;;4975643;28;20531;-64
2022/09/02 06:23:39;;;;;;;4.17;3.87;;;20.90;99.90;;;;;;4975235;28;20450;-64
2022/09/02 06:26:07;;;;;;;3.47;3.23;;;21.40;99.90;;;;;;4975597;28;20454;-64
2022/09/02 06:28:34;;;;;;;3.73;3.43;;;21.80;99.90;;;;;;4975336;28;20465;-64
2022/09/02 06:31:06;;;;;;;3.60;3.40;;;22.20;99.90;;;;;;4974428;28;20478;-65
2022/09/02 06:33:35;;;;;;;6.77;3.10;;;22.60;99.20;;;;;;4975462;28;20533;-64
2022/09/02 06:36:02;;;;;;;3.20;3.00;;;22.70;98.10;;;;;;4975475;28;20830;-64
2022/09/02 06:38:28;;;;;;;3.20;2.70;;;23.10;97.30;;;;;;4975175;28;20466;-64
2022/09/02 06:40:56;;;;;;;2.73;2.63;;;23.40;96.00;;;;;;4975099;28;20550;-65
2022/09/02 06:43:23;;;;;;;3.17;2.97;;;23.70;94.60;;;;;;4975208;28;20483;-64
2022/09/02 06:45:50;;;;;;;3.77;3.47;;;24.00;94.30;;;;;;4975224;28;20465;-64
2022/09/02 06:48:16;;;;;;;3.50;3.30;;;24.40;92.40;;;;;;4975130;28;20454;-64
2022/09/02 06:50:46;;;;;;;4.20;3.50;;;24.60;92.00;;;;;;4974880;28;20482;-64
2022/09/02 06:53:13;;;;;;;3.13;2.80;;;24.90;91.50;;;;;;4975384;28;20462;-65
2022/09/02 06:55:42;;;;;;;3.50;3.20;;;25.20;90.10;;;;;;4975205;28;20957;-66
2022/09/02 06:58:09;;;;;;;4.20;3.90;;;25.60;88.80;;;;;;4975454;28;20450;-66
2022/09/02 07:00:36;;;;;;;3.63;3.33;;;25.50;88.20;;;;;;4975312;28;20486;-67
2022/09/02 07:05:59;;;;;;;3.60;3.30;;;25.60;86.50;;;;;;4975643;28;20506;-66
2022/09/02 07:08:25;;;;;;;3.30;3.07;;;26.00;86.90;;;;;;4975059;28;20438;-66
2022/09/02 07:10:52;;;;;;;4.93;3.23;;;26.30;85.40;;;;;;4975169;28;20479;-65
2022/09/02 07:13:19;;;;;;;4.57;3.50;;;26.50;83.70;;;;;;4975392;28;20457;-66
2022/09/02 07:15:45;;;;;;;7.00;3.00;;;26.60;83.90;;;;;;4975236;28;20814;-65
2022/09/02 07:18:12;;;;;;;3.33;3.13;;;26.80;82.90;;;;;;4975671;28;20458;-66
2022/09/02 07:20:39;;;;;;;3.20;3.00;;;27.00;82.20;;;;;;4974980;28;20474;-66
2022/09/02 07:23:07;;;;;;;3.87;3.53;;;27.40;78.90;;;;;;4975419;28;20481;-66
2022/09/02 07:25:34;;;;;;;5.83;3.33;;;27.60;80.90;;;;;;4975186;28;20459;-65
2022/09/02 07:28:04;;;;;;;3.27;2.97;;;27.70;76.30;;;;;;4975388;28;20459;-66
2022/09/02 07:30:31;;;;;;;2.90;2.80;;;27.80;75.90;;;;;;4976013;28;20493;-66
2022/09/02 07:32:58;;;;;;;3.30;3.10;;;28.10;76.80;;;;;;4975172;28;20502;-65
2022/09/02 07:35:25;;;;;;;3.23;3.03;;;28.30;73.30;;;;;;4974966;28;20455;-67
2022/09/02 07:37:52;;;;;;;3.03;2.50;;;28.60;73.40;;;;;;4975429;28;20459;-66
2022/09/02 07:40:21;;;;;;;2.40;2.30;;;28.80;73.30;;;;;;4975377;28;20509;-65
2022/09/02 07:42:49;;;;;;;3.27;3.07;;;29.20;71.30;;;;;;4977190;28;20560;-65
2022/09/02 07:45:16;;;;;;;5.47;2.60;;;29.30;69.50;;;;;;4978412;28;20494;-66
2022/09/02 07:47:43;;;;;;;5.20;3.23;;;29.60;67.10;;;;;;4978732;28;20469;-66
2022/09/02 07:50:12;;;;;;;2.40;2.30;;;29.80;67.50;;;;;;4978669;28;20481;-66
2022/09/02 07:52:39;;;;;;;2.80;2.50;;;30.00;65.40;;;;;;4978281;28;20821;-66
2022/09/02 07:55:06;;;;;;;4.20;2.37;;;30.10;65.60;;;;;;4978474;28;20466;-66
2022/09/02 07:57:34;;;;;;;2.60;2.50;;;30.40;65.00;;;;;;4978478;28;20461;-67
2022/09/02 08:00:01;;;;;;;2.60;2.50;;;30.20;62.60;;;;;;4978096;28;20458;-67
2022/09/02 08:02:29;;;;;;;3.00;2.80;;;30.30;63.20;;;;;;4977442;28;20487;-66
2022/09/02 08:04:55;;;;;;;3.00;2.43;;;30.30;63.50;;;;;;4977929;28;20466;-66
2022/09/02 08:07:23;;;;;;;2.23;2.13;;;30.50;62.40;;;;;;4977871;28;20947;-67
2022/09/02 08:09:50;;;;;;;2.60;1.87;;;30.50;64.10;;;;;;4977582;28;20549;-67
2022/09/02 08:12:17;;;;;;;2.20;2.07;;;30.80;63.70;;;;;;4977969;28;20486;-67
2022/09/02 08:14:45;;;;;;;2.30;2.20;;;31.20;60.10;;;;;;4978533;28;20466;-68
2022/09/02 08:17:12;;;;;;;2.53;2.40;;;31.50;59.80;;;;;;4978082;28;20545;-68
2022/09/02 08:19:38;;;;;;;2.10;2.00;;;31.90;58.90;;;;;;4977593;28;20455;-67
2022/09/02 08:22:06;;;;;;;3.10;2.13;;;32.20;57.50;;;;;;4978080;28;20482;-67
2022/09/02 08:24:33;;;;;;;3.23;1.80;;;32.30;57.80;;;;;;4977931;28;20562;-67
2022/09/02 08:27:00;;;;;;;2.40;2.30;;;32.30;55.70;;;;;;4977479;28;20469;-66
2022/09/02 08:29:27;;;;;;;3.43;1.73;;;32.00;54.90;;;;;;4977566;28;20461;-66
2022/09/02 08:31:55;;;;;;;2.20;1.63;;;32.30;55.20;;;;;;4977509;28;20501;-67
2022/09/02 08:34:22;;;;;;;1.63;1.63;;;32.50;53.40;;;;;;4977832;28;20454;-66
2022/09/02 08:36:48;;;;;;;1.63;1.60;;;32.40;53.10;;;;;;4977958;28;20462;-67
2022/09/02 08:39:15;;;;;;;2.30;1.70;;;32.40;53.00;;;;;;4978037;28;20454;-66
2022/09/02 08:41:52;;;;;;;2.00;1.80;;;32.60;52.00;;;;;;4976847;28;20486;-66
2022/09/02 08:44:22;;;;;;;3.50;2.47;;;32.70;52.80;;;;;;4977693;28;20443;-67
2022/09/02 08:46:50;;;;;;;1.80;1.60;;;33.00;52.50;;;;;;4977255;28;20529;-66
2022/09/02 08:49:25;;;;;;;6.57;2.17;;;33.30;52.80;;;;;;4977212;28;20458;-65
2022/09/02 08:51:56;;;;;;;1.67;1.57;;;33.40;51.40;;;;;;4976980;28;20532;-65
2022/09/02 08:54:27;;;;;;;4.83;1.60;;;33.50;51.50;;;;;;4976360;28;20438;-65
2022/09/02 08:56:57;;;;;;;4.13;1.60;;;33.80;50.70;;;;;;4976936;28;20438;-65
2022/09/02 08:59:26;;;;;;;2.93;1.60;;;33.90;48.70;;;;;;4976814;28;20494;-67
2022/09/02 09:02:01;;;;;;;1.60;1.50;;;34.10;47.80;;;;;;4976324;28;20902;-67
2022/09/02 09:04:52;;;;;;;1.63;1.53;;;33.90;47.50;;;;;;4976674;28;20481;-67
2022/09/02 09:07:28;;;;;;;1.57;1.47;;;33.80;47.70;;;;;;4976762;28;20445;-67
2022/09/02 09:10:05;;;;;;;2.07;1.87;;;33.80;47.40;;;;;;4976636;28;20450;-68
2022/09/02 09:12:47;;;;;;;1.67;1.57;;;33.90;47.00;;;;;;4976547;28;20474;-67
2022/09/02 09:15:21;;;;;;;1.70;1.60;;;34.00;47.50;;;;;;4976651;28;20446;-68
2022/09/02 09:17:52;;;;;;;1.90;1.53;;;33.90;46.80;;;;;;4976511;28;20439;-67
2022/09/02 09:20:24;;;;;;;1.73;1.63;;;33.70;47.20;;;;;;4977102;28;20470;-67
2022/09/02 09:22:56;;;;;;;2.17;1.97;;;32.70;47.10;;;;;;4976307;28;20466;-68
2022/09/02 09:25:28;;;;;;;2.03;1.40;;;32.50;48.60;;;;;;4976365;28;20438;-68
2022/09/02 09:27:55;;;;;;;1.70;1.60;;;32.40;47.70;;;;;;4976456;28;20442;-68
2022/09/02 09:30:22;;;;;;;1.57;1.33;;;32.30;47.80;;;;;;4976143;28;20969;-68
2022/09/02 09:32:54;;;;;;;1.67;1.57;;;32.30;48.70;;;;;;4976287;28;20450;-68
2022/09/02 09:35:23;;;;;;;2.00;1.57;;;32.60;49.30;;;;;;4976100;28;20443;-68
2022/09/02 09:37:50;;;;;;;1.20;1.20;;;33.10;46.20;;;;;;4976159;28;20515;-69
2022/09/02 09:40:27;;;;;;;3.83;1.50;;;32.80;46.80;;;;;;4976057;28;20513;-68
2022/09/02 09:42:57;;;;;;;1.40;1.30;;;33.00;47.00;;;;;;4976232;28;20513;-67
2022/09/02 09:45:31;;;;;;;1.50;1.50;;;33.10;46.20;;;;;;4976028;28;20454;-68
2022/09/02 09:48:22;;;;;;;2.37;1.30;;;33.10;45.80;;;;;;4976186;28;20803;-68
2022/09/02 09:51:11;;;;;;;1.63;1.53;;;33.20;45.50;;;;;;4975692;28;20518;-68
2022/09/02 09:53:39;;;;;;;2.47;1.67;;;33.20;45.10;;;;;;4976067;28;20443;-68
2022/09/02 09:56:07;;;;;;;1.50;1.40;;;33.40;44.60;;;;;;4975919;28;20942;-65
2022/09/02 09:58:35;;;;;;;1.83;1.70;;;33.70;44.10;;;;;;4975861;28;20459;-66
2022/09/02 10:01:11;;;;;;;1.53;1.30;;;33.90;45.30;;;;;;4975437;28;20509;-66
2022/09/02 10:03:47;;;;;;;3.57;1.40;;;34.20;43.90;;;;;;4975841;28;20485;-66
2022/09/02 10:06:21;;;;;;;1.30;1.20;;;34.50;44.30;;;;;;4975720;28;20478;-66
2022/09/02 10:08:53;;;;;;;1.67;1.40;;;34.70;42.80;;;;;;4975868;28;20465;-66
2022/09/02 10:11:22;;;;;;;1.87;1.77;;;34.50;42.40;;;;;;4975548;28;20488;-67
2022/09/02 10:13:49;;;;;;;1.40;1.30;;;34.30;42.20;;;;;;4975681;28;20552;-66
2022/09/02 10:16:29;;;;;;;3.90;1.40;;;34.10;41.70;;;;;;4975609;28;20458;-66
2022/09/02 10:19:01;;;;;;;2.83;1.20;;;34.00;41.30;;;;;;4975409;28;20441;-66
2022/09/02 10:21:42;;;;;;;3.80;1.30;;;33.30;40.50;;;;;;4975472;28;20485;-65
2022/09/02 10:24:24;;;;;;;1.40;1.40;;;32.90;42.40;;;;;;4975381;28;20470;-65
2022/09/02 10:26:57;;;;;;;1.40;1.30;;;32.60;42.30;;;;;;4975489;28;20445;-66
2022/09/02 10:29:50;;;;;;;1.63;1.53;;;32.70;42.20;;;;;;4975544;28;20442;-65
2022/09/02 10:32:40;;;;;;;1.67;1.57;;;32.90;41.80;;;;;;4975268;28;20474;-66
2022/09/02 10:35:12;;;;;;;1.50;1.40;;;33.00;41.10;;;;;;4975093;28;20879;-66
2022/09/02 10:37:50;;;;;;;1.40;1.33;;;33.20;41.60;;;;;;4975376;28;20443;-65
2022/09/02 10:40:19;;;;;;;2.60;1.73;;;33.20;40.60;;;;;;4975481;28;20806;-66
2022/09/02 10:42:57;;;;;;;1.30;1.20;;;33.00;41.20;;;;;;4974717;28;20885;-66
2022/09/02 10:45:30;;;;;;;1.30;1.30;;;32.60;40.80;;;;;;4975334;28;20443;-66
2022/09/02 10:48:05;;;;;;;2.40;2.20;;;32.50;41.80;;;;;;4975304;28;20470;-66
2022/09/02 10:50:39;;;;;;;1.60;1.50;;;32.70;42.80;;;;;;4975266;28;20450;-66
2022/09/02 10:53:30;;;;;;;1.17;1.17;;;33.10;42.60;;;;;;4975547;28;20899;-66
2022/09/02 10:56:02;;;;;;;1.53;1.43;;;33.80;44.50;;;;;;4975196;28;20445;-66
2022/09/02 10:58:43;;;;;;;1.73;1.63;;;34.20;40.20;;;;;;4974959;28;20446;-65
2022/09/02 11:01:16;;;;;;;1.80;1.40;;;34.50;39.50;;;;;;4974799;28;20482;-66
2022/09/02 11:03:50;;;;;;;1.37;1.37;;;34.90;40.50;;;;;;4975139;28;20573;-66
2022/09/02 11:06:23;;;;;;;1.63;1.40;;;35.00;40.20;;;;;;4975019;28;20445;-65
2022/09/02 11:08:55;;;;;;;1.40;1.30;;;34.50;39.20;;;;;;4975134;28;20442;-66
2022/09/02 11:11:26;;;;;;;1.23;1.23;;;34.30;40.30;;;;;;4974969;28;20478;-65
2022/09/02 11:14:00;;;;;;;1.53;1.10;;;33.80;41.10;;;;;;4975258;28;20442;-65
2022/09/02 11:16:31;;;;;;;1.30;1.30;;;33.50;40.80;;;;;;4975085;28;20762;-66
2022/09/02 11:19:03;;;;;;;2.30;1.30;;;33.10;42.00;;;;;;4978618;28;20906;-65
2022/09/02 11:21:39;;;;;;;1.37;1.30;;;32.60;42.00;;;;;;4978747;28;20478;-63
2022/09/02 11:24:14;;;;;;;3.07;1.50;;;32.30;41.90;;;;;;4978305;28;20465;-65
2022/09/02 11:26:49;;;;;;;1.50;1.40;;;32.20;42.30;;;;;;4979365;28;20442;-65
2022/09/02 11:29:20;;;;;;;1.50;1.40;;;31.90;41.40;;;;;;4978727;28;20536;-64
2022/09/02 11:31:57;;;;;;;1.60;1.50;;;31.50;42.10;;;;;;4978553;28;20483;-64
2022/09/02 11:34:37;;;;;;;1.40;1.40;;;31.20;42.90;;;;;;4978834;28;20438;-65
2022/09/02 11:37:06;;;;;;;2.63;1.57;;;31.00;44.60;;;;;;4978766;28;20450;-66
2022/09/02 11:39:38;;;;;;;3.63;1.50;;;30.70;44.50;;;;;;4978633;28;20458;-64
2022/09/02 11:42:27;;;;;;;2.10;1.30;;;30.40;44.00;;;;;;4978059;28;21016;-64
2022/09/02 11:45:31;;;;;;;2.03;1.33;;;29.90;43.60;;;;;;4979369;28;20809;-64
2022/09/02 11:48:28;;;;;;;1.90;1.07;;;29.80;46.60;;;;;;4971660;28;20462;-65
2022/09/02 11:51:17;;;;;;;2.10;1.50;;;29.90;45.60;;;;;;4978158;28;21084;-64
2022/09/02 11:53:45;;;;;;;1.40;1.30;;;29.70;44.10;;;;;;4978519;28;20801;-64
2022/09/02 11:56:16;;;;;;;1.57;1.33;;;29.70;44.00;;;;;;4978890;28;20497;-64
2022/09/02 11:58:45;;;;;;;1.57;1.57;;;29.20;45.80;;;;;;4978483;28;20451;-64
2022/09/02 12:01:30;;;;;;;1.30;1.30;;;28.90;47.00;;;;;;4978176;28;20482;-64
2022/09/02 12:04:02;;;;;;;1.20;1.20;;;29.00;45.30;;;;;;4978145;28;20831;-64
2022/09/02 12:06:29;;;;;;;1.53;1.43;;;28.80;45.50;;;;;;4978137;28;20478;-64
2022/09/02 12:09:05;;;;;;;1.87;1.30;;;28.60;45.50;;;;;;4978308;28;20460;-64
2022/09/02 12:11:48;;;;;;;3.13;1.60;;;28.70;45.70;;;;;;4978276;28;20474;-66
2022/09/02 12:15:04;;;;;;;1.53;1.23;;;28.50;45.40;;;;;;4978130;28;20434;-66
2022/09/02 12:17:45;;;;;;;4.10;1.60;;;28.30;45.60;;;;;;4977559;28;20981;-66
2022/09/02 12:20:50;;;;;;;1.10;1.10;;;28.00;45.10;;;;;;4977912;28;20435;-65
2022/09/02 12:24:01;;;;;;;1.40;1.30;;;27.70;46.00;;;;;;4977706;28;20485;-65
2022/09/02 12:26:30;;;;;;;13.77;5.77;;;27.30;45.60;;;;;;4917847;29;20461;-62
2022/09/02 12:29:23;;;;;;;23.80;10.90;;;27.30;47.00;;;;;;4964269;28;20454;-65
2022/09/02 12:31:51;;;;;;;11.80;5.50;;;27.30;46.90;;;;;;4977521;28;20517;-64
2022/09/02 12:35:07;;;;;;;1.40;1.30;;;27.60;46.40;;;;;;4977506;28;20451;-64
2022/09/02 12:37:54;;;;;;;1.40;1.30;;;27.80;45.10;;;;;;4977458;28;20443;-65
2022/09/02 12:40:33;;;;;;;1.43;1.30;;;27.90;46.40;;;;;;4977201;28;20459;-64
2022/09/02 12:43:06;;;;;;;1.20;1.20;;;28.10;46.40;;;;;;4977263;28;20449;-64
2022/09/02 12:45:40;;;;;;;1.40;1.30;;;28.30;45.60;;;;;;4977474;28;20442;-64
2022/09/02 12:48:12;;;;;;;1.57;1.40;;;28.40;45.50;;;;;;4981374;28;20445;-65
2022/09/02 12:50:54;;;;;;;1.13;1.13;;;28.40;46.20;;;;;;4978668;28;20517;-65
2022/09/02 12:53:32;;;;;;;1.60;1.50;;;28.60;45.50;;;;;;4978493;28;20450;-66
2022/09/02 12:56:02;;;;;;;1.17;1.17;;;28.50;44.50;;;;;;4978427;28;20450;-66
2022/09/02 12:58:34;;;;;;;1.53;1.43;;;28.50;46.00;;;;;;4977705;28;20435;-66
2022/09/02 13:01:09;;;;;;;2.13;1.60;;;28.60;46.10;;;;;;4976723;28;20486;-66
2022/09/02 13:04:02;;;;;;;1.40;1.30;;;28.40;44.50;;;;;;4976957;28;20466;-66
2022/09/02 13:06:40;;;;;;;1.53;1.53;;;28.10;45.30;;;;;;4976967;28;20443;-65
2022/09/02 13:09:54;;;;;;;1.30;1.30;;;28.00;45.50;;;;;;4976964;28;20439;-64
2022/09/02 13:12:57;;;;;;;1.50;1.40;;;27.90;45.70;;;;;;4893899;28;20473;-65
2022/09/02 13:15:38;;;;;;;1.97;1.77;;;27.70;46.30;;;;;;4952800;28;20446;-65
2022/09/02 13:18:40;;;;;;;1.87;1.30;;;27.80;45.90;;;;;;4976711;28;20439;-66
2022/09/02 13:21:47;;;;;;;1.37;1.27;;;27.80;45.40;;;;;;4976583;28;20525;-64
2022/09/02 13:24:41;;;;;;;2.73;1.53;;;27.90;45.20;;;;;;4976876;28;20521;-64
2022/09/02 13:27:42;;;;;;;1.60;1.50;;;27.80;45.80;;;;;;4976340;28;20450;-64
2022/09/02 13:30:18;;;;;;;2.70;2.00;;;27.70;47.30;;;;;;4975933;28;20439;-65
2022/09/02 13:32:45;;;;;;;1.70;1.60;;;27.80;46.50;;;;;;4976181;28;20435;-64
2022/09/02 13:35:20;;;;;;;4.77;1.70;;;27.60;47.20;;;;;;4976179;28;20454;-64
2022/09/02 13:37:58;;;;;;;1.80;1.23;;;27.50;47.40;;;;;;4975874;28;20777;-65
2022/09/02 13:40:27;;;;;;;5.80;1.57;;;27.60;46.90;;;;;;4975644;28;20445;-64
2022/09/02 13:42:56;;;;;;;1.70;1.60;;;27.60;46.50;;;;;;4976108;28;20454;-64
2022/09/02 13:45:25;;;;;;;1.40;1.40;;;27.50;46.60;;;;;;4975996;28;20478;-64
2022/09/02 13:47:53;;;;;;;1.30;1.30;;;27.60;47.90;;;;;;4975691;28;20867;-62
2022/09/02 13:50:24;;;;;;;2.20;1.40;;;27.70;46.60;;;;;;4975982;28;20454;-63
2022/09/02 13:52:54;;;;;;;1.60;1.50;;;27.60;45.90;;;;;;4976267;28;20443;-62
2022/09/02 13:55:21;;;;;;;1.70;1.40;;;27.40;46.70;;;;;;4975718;28;20451;-62
2022/09/02 13:57:56;;;;;;;2.07;1.87;;;27.50;47.40;;;;;;4975968;28;20454;-62
2022/09/02 14:00:31;;;;;;;1.40;1.40;;;27.60;47.80;;;;;;4975372;28;20929;-62
2022/09/02 14:03:00;;;;;;;1.47;1.37;;;27.70;47.70;;;;;;4975771;28;20442;-62
2022/09/02 14:05:30;;;;;;;1.60;1.50;;;27.60;47.20;;;;;;4976089;28;20489;-63
2022/09/02 14:07:59;;;;;;;1.90;1.80;;;27.70;47.50;;;;;;4975601;28;20461;-63
2022/09/02 14:10:28;;;;;;;1.57;1.57;;;27.70;46.60;;;;;;4975357;28;20459;-64
2022/09/02 14:12:56;;;;;;;1.63;1.40;;;27.60;47.20;;;;;;4975756;28;20481;-64
2022/09/02 14:15:27;;;;;;;3.27;1.57;;;27.60;47.60;;;;;;4975421;28;20451;-63
2022/09/02 14:18:08;;;;;;;1.53;1.43;;;27.60;49.00;;;;;;4975213;28;20458;-64
2022/09/02 14:20:37;;;;;;;1.30;1.20;;;27.80;48.60;;;;;;4975046;28;20458;-64
2022/09/02 14:23:04;;;;;;;1.60;1.60;;;27.90;48.80;;;;;;4975068;28;20458;-64
2022/09/02 14:25:37;;;;;;;3.10;1.80;;;27.90;47.90;;;;;;4975302;28;20479;-66
2022/09/02 14:28:12;;;;;;;2.33;1.60;;;28.00;47.90;;;;;;4975553;28;20443;-65
2022/09/02 14:30:40;;;;;;;1.83;1.70;;;28.00;47.60;;;;;;4975391;28;20560;-65
2022/09/02 14:33:18;;;;;;;2.00;1.70;;;27.80;48.00;;;;;;4975043;28;20803;-65
2022/09/02 14:36:00;;;;;;;1.87;1.40;;;27.70;48.30;;;;;;4975333;28;20450;-64
2022/09/02 14:38:29;;;;;;;4.10;1.60;;;27.70;47.90;;;;;;4975171;28;20445;-65
2022/09/02 14:41:01;;;;;;;1.47;1.40;;;27.70;49.30;;;;;;4974867;28;20537;-65
2022/09/02 14:43:43;;;;;;;2.53;2.33;;;27.70;48.40;;;;;;4974860;28;20803;-66
2022/09/02 14:46:23;;;;;;;1.50;1.40;;;27.80;47.90;;;;;;4975113;28;20438;-65
2022/09/02 14:48:59;;;;;;;1.40;1.40;;;27.80;47.90;;;;;;4974639;28;20438;-65
2022/09/02 14:51:34;;;;;;;3.97;1.37;;;27.90;48.70;;;;;;4976075;28;20484;-65
2022/09/02 14:54:01;;;;;;;1.60;1.47;;;27.90;48.60;;;;;;4979007;28;20442;-64
2022/09/02 14:56:48;;;;;;;1.73;1.63;;;27.80;49.00;;;;;;4979100;28;20481;-64
2022/09/02 14:59:15;;;;;;;1.73;1.73;;;27.60;48.60;;;;;;4979018;28;20438;-64
2022/09/02 15:01:45;;;;;;;1.73;1.40;;;27.60;49.40;;;;;;4978843;28;20486;-64
2022/09/02 15:04:12;;;;;;;2.00;1.90;;;27.70;50.80;;;;;;4978767;28;20529;-65
2022/09/02 15:06:41;;;;;;;1.97;1.67;;;27.60;49.20;;;;;;4978819;28;20458;-64
2022/09/02 15:09:08;;;;;;;2.40;1.63;;;27.60;50.40;;;;;;4978881;28;20496;-64
2022/09/02 15:11:35;;;;;;;3.50;1.93;;;27.60;50.20;;;;;;4979322;28;20475;-64
2022/09/02 15:14:02;;;;;;;4.37;1.70;;;27.60;49.70;;;;;;4979035;28;20451;-64
2022/09/02 15:16:29;;;;;;;1.80;1.70;;;27.60;49.40;;;;;;4979029;28;20454;-64
2022/09/02 15:18:55;;;;;;;1.77;1.67;;;27.60;49.80;;;;;;4978908;28;20450;-64
2022/09/02 15:21:23;;;;;;;7.40;1.70;;;27.60;50.40;;;;;;4978713;28;20474;-63
2022/09/02 15:23:51;;;;;;;3.60;1.43;;;27.60;50.90;;;;;;4978646;28;20446;-63
2022/09/02 15:26:17;;;;;;;1.83;1.73;;;27.60;49.80;;;;;;4978419;28;20454;-62
2022/09/02 15:28:44;;;;;;;2.67;1.73;;;27.60;50.50;;;;;;4978792;28;20461;-62
2022/09/02 15:31:11;;;;;;;1.60;1.40;;;27.60;50.50;;;;;;4977970;28;20474;-62
2022/09/02 15:33:39;;;;;;;1.47;1.40;;;27.70;50.00;;;;;;4978351;28;20450;-62
2022/09/02 15:36:06;;;;;;;2.20;2.00;;;27.60;50.80;;;;;;4978481;28;20454;-62
2022/09/02 15:38:33;;;;;;;3.33;1.43;;;27.50;50.10;;;;;;4978607;28;20458;-63
2022/09/02 15:41:15;;;;;;;2.87;1.80;;;27.40;50.30;;;;;;4978289;28;21003;-63
2022/09/02 15:43:42;;;;;;;1.93;1.70;;;27.30;50.70;;;;;;4978032;28;20438;-62
2022/09/02 15:46:21;;;;;;;4.33;1.70;;;27.20;50.30;;;;;;4978061;28;20482;-62
2022/09/02 15:48:49;;;;;;;3.10;1.70;;;27.00;50.50;;;;;;4977980;28;20925;-62
2022/09/02 15:51:18;;;;;;;1.73;1.67;;;26.70;51.20;;;;;;4977864;28;20485;-62
2022/09/02 15:53:45;;;;;;;1.93;1.83;;;26.70;51.40;;;;;;4978246;28;20458;-63
2022/09/02 15:56:22;;;;;;;1.57;1.50;;;26.60;51.80;;;;;;4977948;28;20447;-63
2022/09/02 15:58:56;;;;;;;2.70;1.50;;;26.50;52.40;;;;;;4978257;28;20501;-62
2022/09/02 16:01:23;;;;;;;1.90;1.77;;;26.30;51.80;;;;;;4977486;28;20493;-63
2022/09/02 16:03:50;;;;;;;1.53;1.53;;;26.20;51.60;;;;;;4977468;28;20455;-63
2022/09/02 16:06:17;;;;;;;1.67;1.57;;;26.10;51.70;;;;;;4977810;28;20479;-62
2022/09/02 16:08:43;;;;;;;2.50;1.87;;;25.90;52.00;;;;;;4977702;28;20454;-62
2022/09/02 16:11:10;;;;;;;1.80;1.70;;;25.70;53.00;;;;;;4977273;28;20475;-62
2022/09/02 16:13:38;;;;;;;1.60;1.50;;;25.60;52.40;;;;;;4977553;28;20946;-62
2022/09/02 16:16:06;;;;;;;1.80;1.57;;;25.40;53.10;;;;;;4977936;28;20451;-63
2022/09/02 16:18:34;;;;;;;1.70;1.60;;;25.30;53.20;;;;;;4977669;28;20451;-63
2022/09/02 16:21:03;;;;;;;4.00;2.50;;;25.30;53.70;;;;;;4977555;28;20474;-62
2022/09/02 16:23:30;;;;;;;2.30;1.63;;;25.30;53.70;;;;;;4977732;28;20646;-63
2022/09/02 16:26:10;;;;;;;2.80;1.80;;;25.20;53.20;;;;;;4977073;28;20478;-63
2022/09/02 16:28:39;;;;;;;2.00;1.90;;;25.10;54.30;;;;;;4977318;28;20442;-62
2022/09/02 16:31:07;;;;;;;2.03;1.93;;;25.10;54.20;;;;;;4977383;28;20485;-62
2022/09/02 16:33:35;;;;;;;2.10;1.90;;;25.10;54.10;;;;;;4977732;28;20458;-62
2022/09/02 16:36:02;;;;;;;2.00;1.90;;;25.10;55.00;;;;;;4977336;28;20458;-63
2022/09/02 16:38:28;;;;;;;1.97;1.87;;;25.10;55.10;;;;;;4977261;28;20451;-62
2022/09/02 16:40:57;;;;;;;1.80;1.70;;;25.10;54.20;;;;;;4977059;28;20486;-63
2022/09/02 16:43:24;;;;;;;1.73;1.63;;;25.10;54.80;;;;;;4977436;28;20462;-62
2022/09/02 16:45:54;;;;;;;1.80;1.70;;;25.00;54.40;;;;;;4977350;28;20474;-62
2022/09/02 16:48:22;;;;;;;1.87;1.77;;;25.00;54.60;;;;;;4977367;28;20498;-62
2022/09/02 16:50:49;;;;;;;2.50;1.67;;;25.00;54.40;;;;;;4976992;28;21052;-62
2022/09/02 16:53:16;;;;;;;2.20;2.10;;;24.90;55.40;;;;;;4977280;28;20459;-62
2022/09/02 16:55:44;;;;;;;1.87;1.77;;;24.90;55.00;;;;;;4976900;28;20459;-62
2022/09/02 16:58:13;;;;;;;1.80;1.70;;;24.90;55.60;;;;;;4977158;28;20517;-62
2022/09/02 17:00:40;;;;;;;1.50;1.40;;;24.90;55.80;;;;;;4976577;28;20577;-62
2022/09/02 17:03:10;;;;;;;1.97;1.87;;;24.90;55.50;;;;;;4977068;28;20802;-62
2022/09/02 17:05:37;;;;;;;4.13;3.20;;;24.90;55.60;;;;;;4976883;28;20521;-63
2022/09/02 17:08:04;;;;;;;1.73;1.57;;;24.90;56.20;;;;;;4976747;28;20459;-62
2022/09/02 17:10:33;;;;;;;4.80;2.13;;;24.80;54.70;;;;;;4976737;28;20462;-62
2022/09/02 17:13:00;;;;;;;1.87;1.77;;;24.70;55.20;;;;;;4976813;28;20462;-62